sensor_id;sensor_type;location;lat;lon;timestamp;pressure;altitude;pressure_sealevel;temperature;humidity
74578;BME280;63173;49.086;33.418;2023-01-30T00:09:11;100670.56;;;-2.57;81.92
74578;BME280;63173;49.086;33.418;2023-01-30T00:11:37;100672.13;;;-2.62;82.92
74578;BME280;63173;49.086;33.418;2023-01-30T00:14:02;100678.16;;;-2.54;83.90
74578;BME280;63173;49.086;33.418;2023-01-30T00:16:28;100681.69;;;-2.47;82.62
74578;BME280;63173;49.086;33.418;2023-01-30T00:18:53;100679.66;;;-2.45;82.99
74578;BME280;63173;49.086;33.418;2023-01-30T00:21:19;100665.84;;;-2.55;82.70
74578;BME280;63173;49.086;33.418;2023-01-30T00:23:44;100661.88;;;-2.44;82.78
74578;BME280;63173;49.086;33.418;2023-01-30T00:26:10;100663.44;;;-2.22;80.96
74578;BME280;63173;49.086;33.418;2023-01-30T00:28:36;100662.63;;;-2.50;81.03
74578;BME280;63173;49.086;33.418;2023-01-30T00:31:02;100666.38;;;-2.38;81.63
74578;BME280;63173;49.086;33.418;2023-01-30T00:33:28;100660.50;;;-2.34;81.22
74578;BME280;63173;49.086;33.418;2023-01-30T00:35:55;100651.72;;;-2.55;82.13
74578;BME280;63173;49.086;33.418;2023-01-30T00:38:20;100644.09;;;-2.65;81.47
74578;BME280;63173;49.086;33.418;2023-01-30T00:40:47;100640.66;;;-2.59;80.98
74578;BME280;63173;49.086;33.418;2023-01-30T00:43:15;100645.63;;;-2.56;81.23
74578;BME280;63173;49.086;33.418;2023-01-30T00:46:00;100647.50;;;-2.50;81.04
74578;BME280;63173;49.086;33.418;2023-01-30T00:48:45;100635.72;;;-2.34;81.13
74578;BME280;63173;49.086;33.418;2023-01-30T00:51:11;100644.22;;;-2.52;80.65
74578;BME280;63173;49.086;33.418;2023-01-30T00:53:36;100644.97;;;-2.58;80.73
74578;BME280;63173;49.086;33.418;2023-01-30T00:56:02;100638.69;;;-2.50;81.23
74578;BME280;63173;49.086;33.418;2023-01-30T00:58:27;100641.59;;;-2.45;79.94
74578;BME280;63173;49.086;33.418;2023-01-30T01:00:53;100633.25;;;-2.36;79.97
74578;BME280;63173;49.086;33.418;2023-01-30T01:03:20;100636.00;;;-2.23;79.55
74578;BME280;63173;49.086;33.418;2023-01-30T01:05:45;100632.22;;;-2.41;79.27
74578;BME280;63173;49.086;33.418;2023-01-30T01:08:11;100630.84;;;-2.58;79.55
74578;BME280;63173;49.086;33.418;2023-01-30T01:10:37;100628.09;;;-2.44;79.71
74578;BME280;63173;49.086;33.418;2023-01-30T01:13:02;100627.81;;;-2.55;80.07
74578;BME280;63173;49.086;33.418;2023-01-30T01:15:28;100615.41;;;-2.48;79.57
74578;BME280;63173;49.086;33.418;2023-01-30T01:17:54;100606.81;;;-2.44;79.23
74578;BME280;63173;49.086;33.418;2023-01-30T01:20:21;100604.13;;;-2.50;80.22
74578;BME280;63173;49.086;33.418;2023-01-30T01:22:47;100603.72;;;-2.47;79.66
74578;BME280;63173;49.086;33.418;2023-01-30T01:25:17;100603.94;;;-2.49;79.93
74578;BME280;63173;49.086;33.418;2023-01-30T01:27:43;100596.53;;;-2.53;80.24
74578;BME280;63173;49.086;33.418;2023-01-30T01:30:09;100599.34;;;-2.61;81.04
74578;BME280;63173;49.086;33.418;2023-01-30T01:32:35;100608.75;;;-2.59;81.34
74578;BME280;63173;49.086;33.418;2023-01-30T01:35:00;100591.81;;;-2.51;80.62
74578;BME280;63173;49.086;33.418;2023-01-30T01:37:26;100593.13;;;-2.41;80.89
74578;BME280;63173;49.086;33.418;2023-01-30T01:39:51;100602.53;;;-2.45;80.26
74578;BME280;63173;49.086;33.418;2023-01-30T01:42:36;100590.22;;;-2.46;80.24
74578;BME280;63173;49.086;33.418;2023-01-30T01:45:15;100583.94;;;-2.38;80.10
74578;BME280;63173;49.086;33.418;2023-01-30T01:50:18;100587.06;;;-2.62;80.52
74578;BME280;63173;49.086;33.418;2023-01-30T01:52:46;100580.81;;;-2.48;79.60
74578;BME280;63173;49.086;33.418;2023-01-30T01:55:13;100579.34;;;-2.57;79.38
74578;BME280;63173;49.086;33.418;2023-01-30T01:57:56;100572.59;;;-2.53;79.13
74578;BME280;63173;49.086;33.418;2023-01-30T02:00:24;100574.72;;;-2.42;79.22
74578;BME280;63173;49.086;33.418;2023-01-30T02:02:59;100578.16;;;-2.48;79.04
74578;BME280;63173;49.086;33.418;2023-01-30T02:05:30;100575.66;;;-2.56;79.09
74578;BME280;63173;49.086;33.418;2023-01-30T02:10:47;100581.75;;;-2.62;79.00
74578;BME280;63173;49.086;33.418;2023-01-30T02:13:15;100583.13;;;-2.66;78.36
74578;BME280;63173;49.086;33.418;2023-01-30T02:15:41;100579.06;;;-2.62;79.06
74578;BME280;63173;49.086;33.418;2023-01-30T02:18:06;100573.19;;;-2.58;78.33
74578;BME280;63173;49.086;33.418;2023-01-30T02:24:08;100578.78;;;-2.46;77.50
74578;BME280;63173;49.086;33.418;2023-01-30T02:32:22;100572.78;;;-2.55;79.32
74578;BME280;63173;49.086;33.418;2023-01-30T02:37:53;100570.31;;;-2.22;77.42
74578;BME280;63173;49.086;33.418;2023-01-30T02:40:38;100565.16;;;-2.30;77.00
74578;BME280;63173;49.086;33.418;2023-01-30T02:43:14;100565.00;;;-2.22;75.96
74578;BME280;63173;49.086;33.418;2023-01-30T02:48:56;100559.16;;;-2.05;75.61
74578;BME280;63173;49.086;33.418;2023-01-30T02:51:35;100558.38;;;-2.33;76.00
74578;BME280;63173;49.086;33.418;2023-01-30T02:54:04;100560.88;;;-2.31;75.32
74578;BME280;63173;49.086;33.418;2023-01-30T02:56:51;100557.69;;;-2.01;75.67
74578;BME280;63173;49.086;33.418;2023-01-30T02:59:25;100558.31;;;-1.99;74.93
74578;BME280;63173;49.086;33.418;2023-01-30T03:11:00;100576.69;;;-2.57;76.69
74578;BME280;63173;49.086;33.418;2023-01-30T03:13:58;100565.47;;;-2.12;75.73
74578;BME280;63173;49.086;33.418;2023-01-30T03:18:51;100562.34;;;-2.22;75.17
74578;BME280;63173;49.086;33.418;2023-01-30T03:21:17;100555.13;;;-2.28;76.09
74578;BME280;63173;49.086;33.418;2023-01-30T03:23:44;100554.84;;;-2.46;77.00
74578;BME280;63173;49.086;33.418;2023-01-30T03:26:19;100549.53;;;-2.40;76.92
74578;BME280;63173;49.086;33.418;2023-01-30T03:28:49;100544.34;;;-2.14;76.02
74578;BME280;63173;49.086;33.418;2023-01-30T03:31:15;100551.03;;;-2.31;76.73
74578;BME280;63173;49.086;33.418;2023-01-30T03:33:41;100551.38;;;-2.40;77.38
74578;BME280;63173;49.086;33.418;2023-01-30T03:36:07;100545.22;;;-2.47;78.73
74578;BME280;63173;49.086;33.418;2023-01-30T03:38:33;100551.03;;;-2.65;78.90
74578;BME280;63173;49.086;33.418;2023-01-30T03:40:59;100543.59;;;-2.42;79.71
74578;BME280;63173;49.086;33.418;2023-01-30T03:43:25;100534.97;;;-2.50;80.69
74578;BME280;63173;49.086;33.418;2023-01-30T03:45:50;100531.28;;;-2.56;80.77
74578;BME280;63173;49.086;33.418;2023-01-30T03:48:16;100533.25;;;-2.64;81.04
74578;BME280;63173;49.086;33.418;2023-01-30T03:50:42;100534.50;;;-2.60;81.49
74578;BME280;63173;49.086;33.418;2023-01-30T03:53:07;100526.06;;;-2.30;80.64
74578;BME280;63173;49.086;33.418;2023-01-30T03:55:32;100540.59;;;-2.32;81.46
74578;BME280;63173;49.086;33.418;2023-01-30T03:57:58;100541.00;;;-2.35;82.13
74578;BME280;63173;49.086;33.418;2023-01-30T04:00:23;100533.59;;;-2.40;82.02
74578;BME280;63173;49.086;33.418;2023-01-30T04:02:49;100544.56;;;-2.56;81.64
74578;BME280;63173;49.086;33.418;2023-01-30T04:05:14;100542.69;;;-2.55;82.68
74578;BME280;63173;49.086;33.418;2023-01-30T04:07:40;100538.22;;;-2.55;82.43
74578;BME280;63173;49.086;33.418;2023-01-30T04:10:05;100539.25;;;-2.49;83.47
74578;BME280;63173;49.086;33.418;2023-01-30T04:12:31;100534.56;;;-2.54;83.41
74578;BME280;63173;49.086;33.418;2023-01-30T04:14:56;100526.56;;;-2.54;83.58
74578;BME280;63173;49.086;33.418;2023-01-30T04:17:22;100527.19;;;-2.52;83.32
74578;BME280;63173;49.086;33.418;2023-01-30T04:19:47;100524.97;;;-2.48;84.26
74578;BME280;63173;49.086;33.418;2023-01-30T04:22:12;100528.47;;;-2.41;83.54
74578;BME280;63173;49.086;33.418;2023-01-30T04:24:38;100529.75;;;-2.31;83.88
74578;BME280;63173;49.086;33.418;2023-01-30T04:27:03;100527.28;;;-2.32;83.58
74578;BME280;63173;49.086;33.418;2023-01-30T04:29:29;100528.63;;;-2.49;84.00
74578;BME280;63173;49.086;33.418;2023-01-30T04:31:54;100528.94;;;-2.25;84.04
74578;BME280;63173;49.086;33.418;2023-01-30T04:34:19;100538.13;;;-2.34;84.34
74578;BME280;63173;49.086;33.418;2023-01-30T04:36:45;100529.31;;;-2.34;84.04
74578;BME280;63173;49.086;33.418;2023-01-30T04:42:32;100534.31;;;-2.18;83.88
74578;BME280;63173;49.086;33.418;2023-01-30T04:44:58;100519.72;;;-2.29;83.59
74578;BME280;63173;49.086;33.418;2023-01-30T04:47:23;100527.34;;;-2.19;84.47
74578;BME280;63173;49.086;33.418;2023-01-30T04:49:49;100527.59;;;-2.14;84.39
74578;BME280;63173;49.086;33.418;2023-01-30T04:52:14;100534.38;;;-1.99;84.07
74578;BME280;63173;49.086;33.418;2023-01-30T04:54:39;100534.41;;;-1.92;83.34
74578;BME280;63173;49.086;33.418;2023-01-30T04:57:05;100539.25;;;-2.09;82.92
74578;BME280;63173;49.086;33.418;2023-01-30T04:59:30;100536.00;;;-2.04;83.33
74578;BME280;63173;49.086;33.418;2023-01-30T05:01:56;100544.59;;;-2.02;83.74
74578;BME280;63173;49.086;33.418;2023-01-30T05:04:21;100536.63;;;-2.02;83.88
74578;BME280;63173;49.086;33.418;2023-01-30T05:06:46;100545.63;;;-1.97;82.98
74578;BME280;63173;49.086;33.418;2023-01-30T05:09:12;100544.16;;;-2.12;83.25
74578;BME280;63173;49.086;33.418;2023-01-30T05:11:37;100544.84;;;-1.91;83.87
74578;BME280;63173;49.086;33.418;2023-01-30T05:14:03;100547.53;;;-1.84;83.61
74578;BME280;63173;49.086;33.418;2023-01-30T05:16:28;100537.22;;;-2.07;82.89
74578;BME280;63173;49.086;33.418;2023-01-30T05:18:54;100549.59;;;-1.86;83.93
74578;BME280;63173;49.086;33.418;2023-01-30T05:21:24;100549.50;;;-2.06;82.89
74578;BME280;63173;49.086;33.418;2023-01-30T05:23:51;100542.94;;;-2.10;83.47
74578;BME280;63173;49.086;33.418;2023-01-30T05:26:17;100541.38;;;-1.84;83.60
74578;BME280;63173;49.086;33.418;2023-01-30T05:28:43;100544.84;;;-1.91;83.82
74578;BME280;63173;49.086;33.418;2023-01-30T05:31:12;100542.59;;;-1.87;83.54
74578;BME280;63173;49.086;33.418;2023-01-30T05:33:39;100542.34;;;-1.99;83.55
74578;BME280;63173;49.086;33.418;2023-01-30T05:36:05;100550.59;;;-1.87;85.05
74578;BME280;63173;49.086;33.418;2023-01-30T05:38:30;100551.00;;;-1.83;84.39
74578;BME280;63173;49.086;33.418;2023-01-30T05:41:03;100547.97;;;-1.80;83.49
74578;BME280;63173;49.086;33.418;2023-01-30T05:43:30;100543.03;;;-1.77;85.03
74578;BME280;63173;49.086;33.418;2023-01-30T05:45:57;100542.84;;;-1.82;84.69
74578;BME280;63173;49.086;33.418;2023-01-30T05:48:23;100543.47;;;-1.73;84.74
74578;BME280;63173;49.086;33.418;2023-01-30T05:50:52;100530.78;;;-1.78;85.33
74578;BME280;63173;49.086;33.418;2023-01-30T05:53:18;100527.50;;;-1.67;85.29
74578;BME280;63173;49.086;33.418;2023-01-30T05:55:44;100532.44;;;-1.70;84.32
74578;BME280;63173;49.086;33.418;2023-01-30T05:58:10;100526.06;;;-1.69;84.40
74578;BME280;63173;49.086;33.418;2023-01-30T06:00:35;100521.31;;;-1.94;85.66
74578;BME280;63173;49.086;33.418;2023-01-30T06:03:00;100523.09;;;-2.01;86.06
74578;BME280;63173;49.086;33.418;2023-01-30T10:24:09;100286.66;;;-1.14;74.64
74578;BME280;63173;49.086;33.418;2023-01-30T10:26:40;100271.91;;;-1.16;73.75
74578;BME280;63173;49.086;33.418;2023-01-30T10:29:12;100270.88;;;-1.15;74.87
74578;BME280;63173;49.086;33.418;2023-01-30T10:31:49;100271.97;;;-1.29;74.94
74578;BME280;63173;49.086;33.418;2023-01-30T10:34:24;100275.44;;;-1.29;73.45
74578;BME280;63173;49.086;33.418;2023-01-30T10:37:19;100265.03;;;-1.37;74.42
74578;BME280;63173;49.086;33.418;2023-01-30T10:40:19;100270.97;;;-1.35;72.20
74578;BME280;63173;49.086;33.418;2023-01-30T10:42:56;100262.34;;;-1.37;73.12
74578;BME280;63173;49.086;33.418;2023-01-30T10:49:04;100235.47;;;-1.29;70.88
74578;BME280;63173;49.086;33.418;2023-01-30T10:54:07;100220.22;;;-1.09;72.00
74578;BME280;63173;49.086;33.418;2023-01-30T10:57:02;100213.44;;;-1.05;70.71
74578;BME280;63173;49.086;33.418;2023-01-30T11:07:20;100200.69;;;-1.03;71.81
74578;BME280;63173;49.086;33.418;2023-01-30T11:09:47;100197.88;;;-1.14;71.24
74578;BME280;63173;49.086;33.418;2023-01-30T11:12:13;100191.34;;;-1.18;71.41
74578;BME280;63173;49.086;33.418;2023-01-30T11:15:14;100184.78;;;-1.16;70.23
74578;BME280;63173;49.086;33.418;2023-01-30T11:17:41;100190.06;;;-1.09;71.52
74578;BME280;63173;49.086;33.418;2023-01-30T11:20:11;100176.75;;;-1.09;70.18
74578;BME280;63173;49.086;33.418;2023-01-30T11:22:47;100168.97;;;-1.11;70.93
74578;BME280;63173;49.086;33.418;2023-01-30T11:25:14;100171.03;;;-1.19;71.49
74578;BME280;63173;49.086;33.418;2023-01-30T11:27:41;100161.56;;;-1.09;71.59
74578;BME280;63173;49.086;33.418;2023-01-30T11:30:15;100154.50;;;-1.28;70.68
74578;BME280;63173;49.086;33.418;2023-01-30T11:32:42;100157.03;;;-1.39;71.02
74578;BME280;63173;49.086;33.418;2023-01-30T11:37:36;100154.47;;;-1.21;71.70
74578;BME280;63173;49.086;33.418;2023-01-30T11:42:45;100155.94;;;-1.25;70.28
74578;BME280;63173;49.086;33.418;2023-01-30T11:45:11;100156.56;;;-1.30;71.65
74578;BME280;63173;49.086;33.418;2023-01-30T11:47:38;100149.34;;;-1.23;70.78
74578;BME280;63173;49.086;33.418;2023-01-30T11:50:17;100156.94;;;-1.20;69.49
74578;BME280;63173;49.086;33.418;2023-01-30T11:52:44;100143.53;;;-1.07;70.76
74578;BME280;63173;49.086;33.418;2023-01-30T11:55:14;100139.06;;;-1.19;70.19
74578;BME280;63173;49.086;33.418;2023-01-30T11:57:44;100132.66;;;-1.12;69.52
74578;BME280;63173;49.086;33.418;2023-01-30T12:00:18;100140.47;;;-1.10;69.92
74578;BME280;63173;49.086;33.418;2023-01-30T12:02:46;100141.47;;;-1.11;69.37
74578;BME280;63173;49.086;33.418;2023-01-30T12:05:23;100131.81;;;-1.06;69.36
74578;BME280;63173;49.086;33.418;2023-01-30T12:07:50;100117.25;;;-1.03;69.46
74578;BME280;63173;49.086;33.418;2023-01-30T14:12:49;100036.75;;;-1.43;73.88
74578;BME280;63173;49.086;33.418;2023-01-30T14:20:34;100034.09;;;-1.43;72.48
74578;BME280;63173;49.086;33.418;2023-01-30T14:25:52;100042.72;;;-1.47;73.32
74578;BME280;63173;49.086;33.418;2023-01-30T14:36:28;100050.16;;;-1.56;73.58
74578;BME280;63173;49.086;33.418;2023-01-30T14:38:34;100040.94;;;-1.53;74.12
74578;BME280;63173;49.086;33.418;2023-01-30T14:51:22;100027.22;;;-1.57;74.09
74578;BME280;63173;49.086;33.418;2023-01-30T14:56:17;100030.53;;;-1.61;74.38
74578;BME280;63173;49.086;33.418;2023-01-30T14:58:58;100024.56;;;-1.57;74.77
74578;BME280;63173;49.086;33.418;2023-01-30T15:01:25;100017.75;;;-1.53;74.21
74578;BME280;63173;49.086;33.418;2023-01-30T15:03:51;100027.06;;;-1.62;74.28
74578;BME280;63173;49.086;33.418;2023-01-30T15:06:16;100032.75;;;-1.58;74.97
74578;BME280;63173;49.086;33.418;2023-01-30T15:08:44;100023.94;;;-1.59;75.19
74578;BME280;63173;49.086;33.418;2023-01-30T15:11:21;100028.19;;;-1.51;74.79
74578;BME280;63173;49.086;33.418;2023-01-30T15:19:29;100013.38;;;-1.72;74.88
74578;BME280;63173;49.086;33.418;2023-01-30T15:22:04;100014.97;;;-1.64;75.75
74578;BME280;63173;49.086;33.418;2023-01-30T15:27:23;100008.66;;;-1.70;74.26
74578;BME280;63173;49.086;33.418;2023-01-30T15:32:38;100004.78;;;-1.74;73.63
74578;BME280;63173;49.086;33.418;2023-01-30T15:35:19;100008.06;;;-1.72;74.12
74578;BME280;63173;49.086;33.418;2023-01-30T15:43:33;100009.50;;;-1.76;74.13
74578;BME280;63173;49.086;33.418;2023-01-30T15:49:23;100011.28;;;-1.63;73.40
74578;BME280;63173;49.086;33.418;2023-01-30T15:51:30;100001.47;;;-1.63;73.65
74578;BME280;63173;49.086;33.418;2023-01-30T15:53:58;99998.75;;;-1.56;73.74
74578;BME280;63173;49.086;33.418;2023-01-30T15:56:29;99993.25;;;-1.61;74.22
74578;BME280;63173;49.086;33.418;2023-01-30T15:58:57;99993.94;;;-1.72;74.44
74578;BME280;63173;49.086;33.418;2023-01-30T16:01:24;100000.81;;;-1.58;73.34
74578;BME280;63173;49.086;33.418;2023-01-30T16:03:50;99992.66;;;-1.63;73.83
74578;BME280;63173;49.086;33.418;2023-01-30T16:06:32;100005.41;;;-1.72;73.54
74578;BME280;63173;49.086;33.418;2023-01-30T16:09:24;100000.50;;;-1.75;74.34
74578;BME280;63173;49.086;33.418;2023-01-30T16:11:50;100001.13;;;-1.73;74.29
74578;BME280;63173;49.086;33.418;2023-01-30T16:14:20;100003.94;;;-1.68;74.23
74578;BME280;63173;49.086;33.418;2023-01-30T16:19:27;99996.16;;;-1.69;73.72
74578;BME280;63173;49.086;33.418;2023-01-30T16:21:58;99992.13;;;-1.78;74.92
74578;BME280;63173;49.086;33.418;2023-01-30T16:24:29;99995.09;;;-1.62;74.39
74578;BME280;63173;49.086;33.418;2023-01-30T16:26:59;99997.75;;;-1.62;74.14
74578;BME280;63173;49.086;33.418;2023-01-30T16:29:28;99990.22;;;-1.65;73.39
74578;BME280;63173;49.086;33.418;2023-01-30T16:31:55;99985.06;;;-1.66;74.50
74578;BME280;63173;49.086;33.418;2023-01-30T16:34:35;99997.22;;;-1.70;74.04
74578;BME280;63173;49.086;33.418;2023-01-30T16:37:23;99982.69;;;-1.74;74.08
74578;BME280;63173;49.086;33.418;2023-01-30T16:42:40;99980.56;;;-1.66;73.34
74578;BME280;63173;49.086;33.418;2023-01-30T16:48:37;99983.06;;;-1.71;74.83
74578;BME280;63173;49.086;33.418;2023-01-30T16:51:17;99978.59;;;-1.77;75.16
74578;BME280;63173;49.086;33.418;2023-01-30T16:53:48;99987.63;;;-1.78;74.55
74578;BME280;63173;49.086;33.418;2023-01-30T16:56:15;99985.16;;;-1.79;75.21
74578;BME280;63173;49.086;33.418;2023-01-30T16:58:44;99980.06;;;-1.81;75.03
74578;BME280;63173;49.086;33.418;2023-01-30T17:01:12;99980.66;;;-1.79;75.22
74578;BME280;63173;49.086;33.418;2023-01-30T17:03:41;99980.22;;;-1.76;74.88
74578;BME280;63173;49.086;33.418;2023-01-30T17:06:20;99979.22;;;-1.75;75.12
74578;BME280;63173;49.086;33.418;2023-01-30T17:08:48;99986.38;;;-1.75;75.85
74578;BME280;63173;49.086;33.418;2023-01-30T17:14:26;99972.69;;;-1.79;74.16
74578;BME280;63173;49.086;33.418;2023-01-30T17:17:05;99970.16;;;-1.67;74.40
74578;BME280;63173;49.086;33.418;2023-01-30T17:19:35;99963.41;;;-1.70;74.03
74578;BME280;63173;49.086;33.418;2023-01-30T17:22:03;99967.50;;;-1.74;73.83
74578;BME280;63173;49.086;33.418;2023-01-30T17:24:29;99966.06;;;-1.70;75.03
74578;BME280;63173;49.086;33.418;2023-01-30T17:26:57;99968.31;;;-1.67;73.67
74578;BME280;63173;49.086;33.418;2023-01-30T17:29:25;99957.16;;;-1.82;74.78
74578;BME280;63173;49.086;33.418;2023-01-30T17:31:51;99947.88;;;-1.73;74.18
74578;BME280;63173;49.086;33.418;2023-01-30T17:34:17;99946.66;;;-1.77;74.08
74578;BME280;63173;49.086;33.418;2023-01-30T17:36:45;99953.78;;;-1.71;74.02
74578;BME280;63173;49.086;33.418;2023-01-30T17:39:13;99945.75;;;-1.64;74.42
74578;BME280;63173;49.086;33.418;2023-01-30T17:41:40;99940.47;;;-1.71;74.51
74578;BME280;63173;49.086;33.418;2023-01-30T17:44:05;99936.78;;;-1.70;74.45
74578;BME280;63173;49.086;33.418;2023-01-30T17:46:38;99939.66;;;-1.71;74.28
74578;BME280;63173;49.086;33.418;2023-01-30T17:49:20;99937.84;;;-1.77;74.16
74578;BME280;63173;49.086;33.418;2023-01-30T17:51:46;99934.97;;;-1.76;73.52
74578;BME280;63173;49.086;33.418;2023-01-30T17:54:13;99932.72;;;-1.72;73.57
74578;BME280;63173;49.086;33.418;2023-01-30T17:56:41;99927.31;;;-1.66;73.97
74578;BME280;63173;49.086;33.418;2023-01-30T17:59:16;99929.22;;;-1.73;73.19
74578;BME280;63173;49.086;33.418;2023-01-30T20:08:18;99898.22;;;-1.85;73.71
74578;BME280;63173;49.086;33.418;2023-01-30T20:10:43;99900.19;;;-1.81;73.56
74578;BME280;63173;49.086;33.418;2023-01-30T20:13:09;99905.91;;;-1.77;73.11
74578;BME280;63173;49.086;33.418;2023-01-30T20:15:38;99896.72;;;-1.81;73.04
74578;BME280;63173;49.086;33.418;2023-01-30T20:18:03;99894.41;;;-1.71;72.78
74578;BME280;63173;49.086;33.418;2023-01-30T20:20:28;99901.41;;;-1.77;73.22
74578;BME280;63173;49.086;33.418;2023-01-30T20:22:54;99905.69;;;-1.76;72.70
74578;BME280;63173;49.086;33.418;2023-01-30T20:25:19;99892.97;;;-1.74;72.64
74578;BME280;63173;49.086;33.418;2023-01-30T20:27:44;99897.59;;;-1.87;72.15
74578;BME280;63173;49.086;33.418;2023-01-30T20:30:10;99899.47;;;-1.95;72.54
74578;BME280;63173;49.086;33.418;2023-01-30T20:32:36;99895.59;;;-1.99;73.04
74578;BME280;63173;49.086;33.418;2023-01-30T20:35:01;99898.84;;;-1.90;72.70
74578;BME280;63173;49.086;33.418;2023-01-30T20:37:27;99895.56;;;-1.92;73.10
74578;BME280;63173;49.086;33.418;2023-01-30T20:39:52;99892.09;;;-1.93;73.70
74578;BME280;63173;49.086;33.418;2023-01-30T20:42:19;99897.41;;;-1.93;73.00
74578;BME280;63173;49.086;33.418;2023-01-30T20:44:44;99896.19;;;-1.90;72.56
74578;BME280;63173;49.086;33.418;2023-01-30T20:47:10;99892.28;;;-1.87;73.61
74578;BME280;63173;49.086;33.418;2023-01-30T20:49:35;99893.03;;;-1.80;72.45
74578;BME280;63173;49.086;33.418;2023-01-30T20:52:01;99893.41;;;-1.77;72.58
74578;BME280;63173;49.086;33.418;2023-01-30T20:54:26;99883.38;;;-1.75;73.37
74578;BME280;63173;49.086;33.418;2023-01-30T20:56:52;99883.41;;;-1.81;72.17
74578;BME280;63173;49.086;33.418;2023-01-30T20:59:20;99889.72;;;-1.76;72.53
74578;BME280;63173;49.086;33.418;2023-01-30T21:01:49;99885.09;;;-1.87;73.45
74578;BME280;63173;49.086;33.418;2023-01-30T21:04:16;99884.34;;;-1.94;73.05
74578;BME280;63173;49.086;33.418;2023-01-30T21:06:42;99881.41;;;-1.86;72.66
74578;BME280;63173;49.086;33.418;2023-01-30T21:09:10;99882.44;;;-1.87;73.16
74578;BME280;63173;49.086;33.418;2023-01-30T21:11:36;99889.41;;;-1.86;72.67
74578;BME280;63173;49.086;33.418;2023-01-30T21:14:02;99882.81;;;-1.83;73.45
74578;BME280;63173;49.086;33.418;2023-01-30T21:16:30;99876.69;;;-1.84;73.18
74578;BME280;63173;49.086;33.418;2023-01-30T21:19:00;99876.09;;;-1.86;73.25
74578;BME280;63173;49.086;33.418;2023-01-30T21:21:28;99867.53;;;-1.95;73.71
74578;BME280;63173;49.086;33.418;2023-01-30T21:23:57;99873.25;;;-1.91;73.64
74578;BME280;63173;49.086;33.418;2023-01-30T21:26:24;99867.06;;;-1.85;72.96
74578;BME280;63173;49.086;33.418;2023-01-30T21:28:50;99872.66;;;-1.93;72.94
74578;BME280;63173;49.086;33.418;2023-01-30T21:31:18;99882.88;;;-1.90;73.02
74578;BME280;63173;49.086;33.418;2023-01-30T21:33:45;99884.94;;;-1.92;73.19
74578;BME280;63173;49.086;33.418;2023-01-30T21:36:12;99896.03;;;-1.95;73.37
74578;BME280;63173;49.086;33.418;2023-01-30T21:38:38;99874.28;;;-1.92;72.62
74578;BME280;63173;49.086;33.418;2023-01-30T21:41:27;99873.31;;;-1.98;73.72
74578;BME280;63173;49.086;33.418;2023-01-30T21:44:32;99872.22;;;-1.90;72.71
74578;BME280;63173;49.086;33.418;2023-01-30T21:46:58;99865.25;;;-1.91;72.97
74578;BME280;63173;49.086;33.418;2023-01-30T21:49:24;99879.44;;;-1.97;73.56
74578;BME280;63173;49.086;33.418;2023-01-30T21:51:50;99875.34;;;-1.93;72.89
74578;BME280;63173;49.086;33.418;2023-01-30T21:54:16;99857.00;;;-1.83;73.19
74578;BME280;63173;49.086;33.418;2023-01-30T21:56:42;99857.06;;;-1.89;72.82
74578;BME280;63173;49.086;33.418;2023-01-30T21:59:08;99850.09;;;-1.91;73.14
74578;BME280;63173;49.086;33.418;2023-01-30T22:01:34;99849.50;;;-1.93;73.27
74578;BME280;63173;49.086;33.418;2023-01-30T22:04:01;99852.66;;;-2.02;73.30
74578;BME280;63173;49.086;33.418;2023-01-30T22:06:28;99857.50;;;-1.93;73.25
74578;BME280;63173;49.086;33.418;2023-01-30T22:08:57;99856.88;;;-1.95;73.16
74578;BME280;63173;49.086;33.418;2023-01-30T22:11:24;99855.66;;;-1.92;73.43
74578;BME280;63173;49.086;33.418;2023-01-30T22:13:50;99857.22;;;-1.84;73.36
74578;BME280;63173;49.086;33.418;2023-01-30T22:16:20;99847.78;;;-1.80;73.00
74578;BME280;63173;49.086;33.418;2023-01-30T22:18:50;99853.69;;;-2.03;74.26
74578;BME280;63173;49.086;33.418;2023-01-30T22:21:18;99863.28;;;-2.02;73.48
74578;BME280;63173;49.086;33.418;2023-01-30T22:23:45;99851.56;;;-1.95;74.10
74578;BME280;63173;49.086;33.418;2023-01-30T22:26:12;99850.59;;;-2.00;73.79
74578;BME280;63173;49.086;33.418;2023-01-30T22:28:39;99846.94;;;-2.06;73.65
74578;BME280;63173;49.086;33.418;2023-01-30T22:31:16;99850.06;;;-1.84;73.67
74578;BME280;63173;49.086;33.418;2023-01-30T22:33:47;99850.59;;;-2.00;73.29
74578;BME280;63173;49.086;33.418;2023-01-30T22:36:13;99850.94;;;-1.90;72.77
74578;BME280;63173;49.086;33.418;2023-01-30T22:38:47;99847.56;;;-1.79;72.89
74578;BME280;63173;49.086;33.418;2023-01-30T22:41:15;99846.72;;;-1.79;72.43
74578;BME280;63173;49.086;33.418;2023-01-30T22:43:47;99840.00;;;-2.07;73.34
74578;BME280;63173;49.086;33.418;2023-01-30T22:46:14;99846.84;;;-1.93;73.54
74578;BME280;63173;49.086;33.418;2023-01-30T22:48:40;99845.16;;;-1.87;72.81
74578;BME280;63173;49.086;33.418;2023-01-30T22:53:53;99842.56;;;-1.94;72.93
74578;BME280;63173;49.086;33.418;2023-01-30T22:56:21;99845.72;;;-2.03;73.09
74578;BME280;63173;49.086;33.418;2023-01-30T22:58:48;99839.94;;;-2.00;72.54
74578;BME280;63173;49.086;33.418;2023-01-30T23:01:24;99839.19;;;-2.07;72.88
74578;BME280;63173;49.086;33.418;2023-01-30T23:03:55;99829.25;;;-1.94;73.84
74578;BME280;63173;49.086;33.418;2023-01-30T23:06:22;99828.41;;;-1.87;73.20
74578;BME280;63173;49.086;33.418;2023-01-30T23:08:48;99836.31;;;-2.06;73.64
74578;BME280;63173;49.086;33.418;2023-01-30T23:11:17;99830.66;;;-1.91;74.00
74578;BME280;63173;49.086;33.418;2023-01-30T23:13:45;99840.13;;;-1.95;73.18
74578;BME280;63173;49.086;33.418;2023-01-30T23:16:11;99827.31;;;-2.05;73.63
74578;BME280;63173;49.086;33.418;2023-01-30T23:18:38;99833.59;;;-1.99;73.74
74578;BME280;63173;49.086;33.418;2023-01-30T23:21:36;99822.75;;;-1.98;72.87
74578;BME280;63173;49.086;33.418;2023-01-30T23:24:05;99826.75;;;-1.88;73.73
74578;BME280;63173;49.086;33.418;2023-01-30T23:26:33;99831.44;;;-1.84;73.43